Time;durP1;ratioP1;P1;durP2;ratioP2;P2;SDS_P1;SDS_P2;PMS_P1;PMS_P2;Temp;Humidity;BMP_temperature;BMP_pressure;BME280_temperature;BME280_humidity;BME280_pressure;Samples;Min_cycle;Max_cycle;Signal;HPM_P1;HPM_P2
2020/12/14 00:01:03;;;;;;;48.35;21.20;;;;;;;1.11;83.13;100432.18;1795808;78;25653;-58
2020/12/14 00:03:33;;;;;;;48.87;21.07;;;;;;;1.09;83.10;100435.59;1795838;79;25913;-55
2020/12/14 00:06:00;;;;;;;47.60;21.82;;;;;;;1.10;83.26;100434.02;1796023;79;31715;-58
2020/12/14 00:08:27;;;;;;;47.53;21.45;;;;;;;1.10;83.33;100434.02;1795608;78;25765;-59
2020/12/14 00:10:54;;;;;;;53.33;23.57;;;;;;;1.10;83.05;100435.88;1795805;78;25643;-58
2020/12/14 00:13:20;;;;;;;49.73;22.77;;;;;;;1.08;83.25;100432.12;1795829;78;26406;-57
2020/12/14 00:15:47;;;;;;;52.23;23.35;;;;;;;1.08;83.34;100424.13;1795885;79;25721;-58
2020/12/14 00:18:14;;;;;;;52.80;21.95;;;;;;;1.07;83.47;100430.53;1795952;78;25656;-58
2020/12/14 00:20:41;;;;;;;53.80;23.42;;;;;;;1.07;83.53;100437.19;1795806;78;26175;-60
2020/12/14 00:23:08;;;;;;;52.23;24.80;;;;;;;1.08;83.65;100439.31;1795584;79;25602;-58
2020/12/14 00:25:35;;;;;;;55.88;24.07;;;;;;;1.09;83.64;100436.92;1795790;78;25937;-59
2020/12/14 00:28:01;;;;;;;54.55;24.57;;;;;;;1.07;83.61;100439.85;1795712;79;25789;-59
2020/12/14 00:30:28;;;;;;;50.45;22.70;;;;;;;1.06;83.65;100440.89;1814795;78;29069;-57
2020/12/14 00:32:55;;;;;;;51.30;23.05;;;;;;;1.07;83.70;100445.18;1828304;77;25968;-59
2020/12/14 00:35:22;;;;;;;48.87;22.22;;;;;;;1.09;83.71;100447.58;1828210;78;26451;-58
2020/12/14 00:37:48;;;;;;;56.00;22.87;;;;;;;1.08;83.73;100440.11;1828343;77;25800;-59
2020/12/14 00:40:15;;;;;;;55.08;24.40;;;;;;;1.08;83.67;100442.78;1828349;78;25791;-58
2020/12/14 00:42:43;;;;;;;51.48;21.85;;;;;;;1.07;83.65;100445.18;1828368;78;25756;-59
2020/12/14 00:45:12;;;;;;;52.45;22.85;;;;;;;1.06;83.63;100454.21;1827557;78;25755;-57
2020/12/14 00:47:39;;;;;;;51.13;22.57;;;;;;;1.05;83.67;100451.25;1827734;78;25697;-56
2020/12/14 00:50:06;;;;;;;48.02;21.15;;;;;;;1.05;83.69;100453.91;1828403;78;25807;-61
2020/12/14 00:52:32;;;;;;;52.20;21.42;;;;;;;1.04;83.70;100460.31;1828044;78;25775;-57
2020/12/14 00:54:59;;;;;;;50.03;21.12;;;;;;;1.02;83.66;100454.42;1828540;78;25736;-58
2020/12/14 00:57:26;;;;;;;52.20;21.75;;;;;;;0.97;83.61;100450.34;1828396;78;27236;-58
2020/12/14 00:59:53;;;;;;;49.38;23.32;;;;;;;0.99;83.63;100453.56;1828392;78;25735;-58
2020/12/14 01:02:22;;;;;;;53.70;23.02;;;;;;;0.97;83.62;100470.32;1828397;77;25768;-57
2020/12/14 01:04:51;;;;;;;53.80;23.73;;;;;;;0.93;83.58;100471.30;1828444;78;25718;-57
2020/12/14 01:07:18;;;;;;;51.45;22.58;;;;;;;0.92;83.67;100471.56;1828311;78;26219;-56
2020/12/14 01:09:46;;;;;;;52.55;21.95;;;;;;;0.91;83.77;100473.40;1828343;78;25802;-56
2020/12/14 01:12:13;;;;;;;56.13;22.25;;;;;;;0.90;83.89;100465.65;1828224;78;25750;-57
2020/12/14 01:14:40;;;;;;;51.80;24.25;;;;;;;0.91;83.90;100468.61;1828308;78;25802;-56
2020/12/14 01:17:07;;;;;;;52.55;23.35;;;;;;;0.91;83.98;100465.94;1828356;78;26190;-57
2020/12/14 01:19:33;;;;;;;60.90;25.17;;;;;;;0.91;84.01;100467.27;1828371;77;25683;-56
2020/12/14 01:22:00;;;;;;;59.53;23.80;;;;;;;0.91;84.04;100470.73;1828318;78;25922;-56
2020/12/14 01:24:27;;;;;;;61.80;24.85;;;;;;;0.90;84.04;100473.13;1827459;78;26316;-54
2020/12/14 01:26:53;;;;;;;56.75;23.77;;;;;;;0.91;84.07;100468.61;1825985;78;25899;-55
2020/12/14 01:29:20;;;;;;;56.37;22.77;;;;;;;0.91;84.10;100461.95;1822517;78;28231;-58
2020/12/14 01:31:47;;;;;;;57.53;23.70;;;;;;;0.91;84.10;100464.08;1826004;78;25811;-56
2020/12/14 01:34:13;;;;;;;62.03;25.12;;;;;;;0.91;83.99;100465.94;1825999;78;26218;-52
2020/12/14 01:36:40;;;;;;;56.10;22.82;;;;;;;0.91;84.05;100472.60;1826107;78;25816;-58
2020/12/14 01:39:07;;;;;;;57.03;22.00;;;;;;;0.90;84.11;100470.47;1825950;78;25767;-59
2020/12/14 01:41:33;;;;;;;51.83;21.97;;;;;;;0.91;84.13;100472.06;1826141;78;25668;-57
2020/12/14 01:44:00;;;;;;;53.17;22.07;;;;;;;0.92;84.16;100475.56;1826092;78;25620;-59
2020/12/14 01:46:31;;;;;;;54.48;22.10;;;;;;;0.87;83.95;100468.28;1825923;78;27134;-58
2020/12/14 01:49:00;;;;;;;59.40;23.12;;;;;;;0.86;84.03;100473.84;1825836;78;25565;-58
2020/12/14 01:51:29;;;;;;;54.40;23.35;;;;;;;0.86;84.15;100472.52;1800507;78;25676;-58
2020/12/14 01:53:58;;;;;;;54.23;21.05;;;;;;;0.85;84.09;100470.88;1826072;78;25670;-55
2020/12/14 01:56:28;;;;;;;54.48;22.42;;;;;;;0.82;84.15;100468.19;1826164;78;26084;-53
2020/12/14 01:58:55;;;;;;;57.10;22.80;;;;;;;0.84;84.26;100473.28;1826162;78;26953;-56
2020/12/14 02:01:21;;;;;;;58.85;22.48;;;;;;;0.86;84.39;100473.84;1825753;78;25795;-57
2020/12/14 02:03:48;;;;;;;56.65;23.83;;;;;;;0.88;84.40;100478.40;1826036;78;25742;-54
2020/12/14 02:06:15;;;;;;;56.13;21.85;;;;;;;0.90;84.39;100474.47;1826044;78;26438;-54
2020/12/14 02:08:41;;;;;;;50.35;20.72;;;;;;;0.94;84.39;100476.12;1825887;78;25700;-46
2020/12/14 02:11:08;;;;;;;54.80;22.87;;;;;;;0.97;84.39;100480.14;1826017;78;27062;-58
2020/12/14 02:13:34;;;;;;;58.15;22.25;;;;;;;1.00;84.41;100467.16;1825872;78;25722;-57
2020/12/14 02:16:01;;;;;;;53.48;21.50;;;;;;;1.03;84.35;100467.20;1825949;78;25809;-58
2020/12/14 02:18:28;;;;;;;57.90;21.87;;;;;;;1.05;84.34;100471.77;1825862;78;25874;-50
2020/12/14 02:20:55;;;;;;;51.53;21.57;;;;;;;1.05;84.26;100466.44;1826159;78;25733;-55
2020/12/14 02:23:21;;;;;;;52.85;21.23;;;;;;;1.09;84.29;100468.89;1825793;78;25886;-54
2020/12/14 02:25:48;;;;;;;56.50;21.42;;;;;;;1.10;84.22;100468.65;1825947;78;25590;-52
2020/12/14 02:28:14;;;;;;;50.15;19.75;;;;;;;1.11;84.10;100468.14;1825971;78;25911;-56
2020/12/14 02:30:41;;;;;;;51.70;19.85;;;;;;;1.11;84.02;100464.16;1822515;78;29716;-52
2020/12/14 02:33:07;;;;;;;52.75;21.62;;;;;;;1.09;83.92;100463.06;1826118;78;25634;-54
2020/12/14 02:35:34;;;;;;;57.62;21.35;;;;;;;1.09;84.00;100471.05;1826084;78;26157;-50
2020/12/14 02:38:00;;;;;;;47.17;19.87;;;;;;;1.11;84.11;100470.81;1825759;78;25708;-48
2020/12/14 02:40:27;;;;;;;54.50;20.70;;;;;;;1.08;84.06;100469.42;1826040;78;25707;-54
2020/12/14 02:42:54;;;;;;;54.27;20.40;;;;;;;1.06;83.97;100472.86;1825929;78;25742;-59
2020/12/14 02:45:20;;;;;;;50.15;20.37;;;;;;;1.06;83.99;100480.05;1825952;78;25639;-56
2020/12/14 02:47:47;;;;;;;55.03;21.23;;;;;;;1.05;84.00;100473.89;1825949;78;25869;-46
2020/12/14 02:50:14;;;;;;;55.30;19.82;;;;;;;1.06;84.05;100473.39;1825905;78;26025;-47
2020/12/14 02:52:41;;;;;;;60.63;21.00;;;;;;;1.02;83.80;100481.06;1825907;78;26013;-57
2020/12/14 02:55:08;;;;;;;56.00;20.82;;;;;;;0.99;83.78;100483.38;1826019;78;25640;-57
2020/12/14 02:57:35;;;;;;;61.83;20.80;;;;;;;0.97;83.74;100486.30;1826043;78;25764;-58
2020/12/14 03:00:04;;;;;;;52.80;20.50;;;;;;;0.94;83.80;100489.44;1825960;78;26400;-55
2020/12/14 03:02:31;;;;;;;51.70;20.43;;;;;;;0.93;83.90;100485.95;1825940;78;33332;-58
2020/12/14 03:04:57;;;;;;;51.30;19.12;;;;;;;0.91;83.95;100481.39;1826128;78;25878;-52
2020/12/14 03:07:24;;;;;;;53.23;21.35;;;;;;;0.91;84.03;100487.25;1825807;78;25787;-56
2020/12/14 03:09:51;;;;;;;58.15;21.87;;;;;;;0.89;84.03;100493.34;1826060;78;25672;-56
2020/12/14 03:12:17;;;;;;;57.25;20.40;;;;;;;0.87;84.11;100490.92;1826052;78;27048;-57
2020/12/14 03:14:44;;;;;;;54.58;20.65;;;;;;;0.88;84.27;100493.05;1826056;78;25719;-57
2020/12/14 03:17:11;;;;;;;58.40;22.93;;;;;;;0.88;84.19;100494.37;1826094;78;25853;-56
2020/12/14 03:19:37;;;;;;;57.08;19.87;;;;;;;0.88;84.28;100495.17;1826228;78;25732;-55
2020/12/14 03:22:04;;;;;;;57.50;20.27;;;;;;;0.90;84.23;100498.94;1826098;78;25709;-55
2020/12/14 03:24:30;;;;;;;53.60;20.50;;;;;;;0.93;84.37;100492.61;1826061;78;25874;-54
2020/12/14 03:26:57;;;;;;;54.55;19.70;;;;;;;0.93;84.32;100493.14;1825430;78;25600;-56
2020/12/14 03:29:24;;;;;;;59.40;21.25;;;;;;;0.95;84.30;100498.23;1824313;78;25685;-58
2020/12/14 03:31:50;;;;;;;56.55;20.72;;;;;;;0.92;84.17;100504.33;1792872;79;25819;-57
2020/12/14 03:34:17;;;;;;;63.50;21.42;;;;;;;0.94;84.35;100504.09;1792980;79;25909;-57
2020/12/14 03:36:43;;;;;;;51.68;19.82;;;;;;;0.95;84.36;100500.89;1793079;79;27359;-57
2020/12/14 03:39:10;;;;;;;60.52;22.02;;;;;;;0.95;84.37;100501.69;1792934;79;25902;-56
2020/12/14 03:41:36;;;;;;;56.05;21.82;;;;;;;1.00;84.50;100505.78;1793005;79;26067;-58
2020/12/14 03:44:03;;;;;;;50.90;20.43;;;;;;;1.00;84.45;100504.44;1793136;79;25765;-58
2020/12/14 03:46:35;;;;;;;56.55;21.40;;;;;;;1.01;84.43;100501.28;1793123;79;25708;-57
2020/12/14 03:49:02;;;;;;;55.75;21.70;;;;;;;1.01;84.35;100507.94;1793015;79;26951;-56
2020/12/14 03:51:31;;;;;;;49.77;19.12;;;;;;;1.03;84.50;100509.30;1792815;79;25768;-57
2020/12/14 03:53:57;;;;;;;61.75;21.25;;;;;;;1.05;84.48;100512.52;1793001;79;25855;-57
2020/12/14 03:56:25;;;;;;;53.38;20.80;;;;;;;1.04;84.30;100508.77;1793053;79;25654;-57
2020/12/14 03:58:53;;;;;;;59.23;21.60;;;;;;;1.03;84.28;100508.50;1793039;79;25757;-56
2020/12/14 04:01:24;;;;;;;55.50;21.50;;;;;;;1.03;84.27;100509.30;1793015;79;25757;-57
2020/12/14 04:03:51;;;;;;;58.70;20.90;;;;;;;1.04;84.35;100508.77;1793024;79;25727;-56
2020/12/14 04:06:23;;;;;;;51.60;20.88;;;;;;;1.05;84.39;100512.52;1792793;79;25808;-46
2020/12/14 04:08:50;;;;;;;50.48;19.62;;;;;;;1.06;84.42;100510.69;1793081;79;25777;-55
2020/12/14 04:11:17;;;;;;;50.20;20.55;;;;;;;1.06;84.36;100514.15;1792969;79;25938;-52
2020/12/14 04:13:46;;;;;;;42.60;18.85;;;;;;;1.07;84.38;100511.78;1792952;79;27076;-52
2020/12/14 04:16:14;;;;;;;51.37;20.08;;;;;;;1.07;84.32;100514.95;1792816;79;25800;-57
2020/12/14 04:18:41;;;;;;;47.75;18.75;;;;;;;1.06;84.18;100515.48;1792936;79;25783;-57
2020/12/14 04:21:09;;;;;;;50.25;19.62;;;;;;;1.08;84.31;100516.58;1792970;79;25962;-56
2020/12/14 04:23:36;;;;;;;46.15;18.92;;;;;;;1.07;84.32;100520.28;1792943;79;25631;-56
2020/12/14 04:26:04;;;;;;;49.98;19.45;;;;;;;1.09;84.40;100524.84;1793277;79;26179;-51
2020/12/14 04:28:31;;;;;;;45.23;18.32;;;;;;;1.08;84.35;100523.23;1793285;79;25979;-56
2020/12/14 04:31:00;;;;;;;52.20;18.75;;;;;;;1.06;84.28;100521.34;1808617;78;28537;-56
2020/12/14 04:33:27;;;;;;;47.85;17.95;;;;;;;1.05;84.22;100523.18;1826223;78;25795;-56
2020/12/14 04:35:53;;;;;;;53.92;20.57;;;;;;;1.03;84.17;100524.48;1826045;78;25779;-51
2020/12/14 04:38:20;;;;;;;48.05;18.23;;;;;;;1.02;84.35;100526.34;1826076;78;26398;-53
2020/12/14 04:40:47;;;;;;;52.53;19.15;;;;;;;1.05;84.38;100529.84;1826004;78;25925;-55
2020/12/14 04:43:15;;;;;;;45.50;18.02;;;;;;;1.07;84.47;100531.77;1826137;78;25934;-57
2020/12/14 04:45:43;;;;;;;45.10;17.65;;;;;;;1.08;84.38;100535.23;1826158;78;25807;-52
2020/12/14 04:48:10;;;;;;;44.90;17.05;;;;;;;1.06;84.36;100538.13;1826217;78;25724;-57
2020/12/14 04:50:39;;;;;;;46.45;17.60;;;;;;;1.08;84.48;100534.70;1826018;78;26426;-57
2020/12/14 04:53:05;;;;;;;44.58;18.57;;;;;;;1.10;84.58;100538.45;1800605;78;26157;-56
2020/12/14 04:55:36;;;;;;;49.33;18.75;;;;;;;1.11;84.42;100539.55;1826096;78;25705;-54
2020/12/14 04:58:05;;;;;;;45.83;17.55;;;;;;;1.08;84.29;100540.02;1825902;78;26284;-55
2020/12/14 05:00:34;;;;;;;45.43;16.85;;;;;;;1.11;84.41;100544.08;1826092;78;25676;-55
2020/12/14 05:03:01;;;;;;;43.85;16.80;;;;;;;1.09;84.28;100548.81;1826193;78;26209;-54
2020/12/14 05:05:28;;;;;;;45.85;18.80;;;;;;;1.10;84.28;100554.44;1825711;78;26406;-57
2020/12/14 05:07:55;;;;;;;47.00;18.50;;;;;;;1.10;84.27;100553.11;1826003;78;25772;-54
2020/12/14 05:10:25;;;;;;;46.02;17.80;;;;;;;1.10;84.29;100553.11;1826070;78;25648;-55
2020/12/14 05:12:52;;;;;;;51.77;19.35;;;;;;;1.10;84.30;100545.12;1826038;78;25690;-53
2020/12/14 05:15:28;;;;;;;52.50;18.60;;;;;;;1.13;84.38;100553.17;1826118;78;26664;-51
2020/12/14 05:18:15;;;;;;;46.15;18.87;;;;;;;1.14;84.39;100553.44;1826150;78;25929;-56
2020/12/14 05:20:42;;;;;;;37.20;16.32;;;;;;;1.15;84.42;100553.20;1825580;78;25696;-54
2020/12/14 05:23:11;;;;;;;39.27;16.48;;;;;;;1.13;84.19;100551.30;1826024;78;25685;-50
2020/12/14 05:25:38;;;;;;;36.65;16.27;;;;;;;1.12;84.11;100560.33;1825953;78;25953;-55
2020/12/14 05:28:18;;;;;;;48.90;17.87;;;;;;;1.12;84.05;100564.33;1825328;78;26266;-57
2020/12/14 05:30:50;;;;;;;42.67;16.67;;;;;;;1.14;84.18;100572.09;1821943;78;25627;-54
2020/12/14 05:33:23;;;;;;;35.63;16.00;;;;;;;1.13;84.21;100573.95;1825364;78;25917;-54
2020/12/14 05:35:51;;;;;;;35.40;15.40;;;;;;;1.15;84.25;100580.38;1825365;78;25823;-54
2020/12/14 05:38:28;;;;;;;37.48;16.23;;;;;;;1.15;84.21;100585.17;1825433;78;25728;-46
2020/12/14 05:41:01;;;;;;;40.35;16.48;;;;;;;1.15;84.15;100588.38;1824642;78;25899;-56
2020/12/14 05:43:31;;;;;;;37.25;15.60;;;;;;;1.14;84.16;100588.08;1823276;78;25854;-56
2020/12/14 05:46:14;;;;;;;37.40;16.17;;;;;;;1.13;84.14;100593.94;1825277;78;25982;-54
2020/12/14 05:48:42;;;;;;;34.65;15.38;;;;;;;1.10;84.04;100595.20;1825227;78;25690;-48
2020/12/14 05:51:11;;;;;;;35.88;16.07;;;;;;;1.08;84.02;100597.84;1825560;78;25834;-49
2020/12/14 05:53:49;;;;;;;39.15;16.55;;;;;;;1.05;84.01;100603.10;1825599;78;26754;-53
2020/12/14 05:56:17;;;;;;;38.73;15.32;;;;;;;1.00;84.00;100608.87;1824735;78;25918;-54
2020/12/14 05:58:44;;;;;;;33.98;15.45;;;;;;;0.99;84.04;100609.91;1825553;78;25647;-50
2020/12/14 06:01:11;;;;;;;30.68;14.18;;;;;;;0.97;84.05;100613.33;1825511;78;25769;-51
2020/12/14 06:03:38;;;;;;;34.00;15.38;;;;;;;0.96;84.05;100614.39;1825394;78;25976;-54
2020/12/14 06:06:09;;;;;;;36.77;15.85;;;;;;;0.96;84.13;100620.52;1825677;78;27106;-57
2020/12/14 06:09:04;;;;;;;36.55;16.62;;;;;;;1.00;84.30;100627.52;1825342;78;25831;-47
2020/12/14 06:11:36;;;;;;;34.80;14.58;;;;;;;1.00;84.29;100626.98;1825324;78;25601;-52
2020/12/14 06:14:05;;;;;;;36.75;15.88;;;;;;;1.01;84.32;100632.61;1825321;78;25744;-50
2020/12/14 06:16:35;;;;;;;35.52;15.03;;;;;;;1.02;84.30;100635.57;1824630;77;25728;-55
2020/12/14 06:19:02;;;;;;;34.18;14.60;;;;;;;1.04;84.37;100637.97;1823652;77;30430;-53
2020/12/14 06:21:47;;;;;;;33.73;15.05;;;;;;;1.03;84.20;100634.51;1823646;78;25942;-49
2020/12/14 06:24:25;;;;;;;31.80;14.10;;;;;;;0.99;84.10;100634.70;1824564;77;26043;-51
2020/12/14 06:26:53;;;;;;;35.65;13.38;;;;;;;0.98;84.10;100633.08;1825206;78;26342;-52
2020/12/14 06:29:35;;;;;;;32.78;13.75;;;;;;;0.95;84.13;100634.88;1826026;78;25807;-52
2020/12/14 06:32:03;;;;;;;36.25;14.47;;;;;;;0.97;84.32;100649.30;1822301;78;27484;-56
2020/12/14 06:34:37;;;;;;;35.68;14.83;;;;;;;0.96;84.26;100646.36;1825789;78;25632;-57
2020/12/14 06:37:05;;;;;;;33.23;14.07;;;;;;;0.96;84.36;100647.16;1825880;78;25615;-46
2020/12/14 06:39:45;;;;;;;35.85;14.25;;;;;;;0.97;84.27;100651.95;1825980;78;25830;-47
2020/12/14 06:42:15;;;;;;;;;;;;;;;0.95;84.24;100650.06;1828668;78;25811;-55
2020/12/14 06:44:50;;;;;;;28.12;12.95;;;;;;;0.93;84.22;100646.30;1825963;78;25702;-55
2020/12/14 06:47:18;;;;;;;31.05;14.55;;;;;;;0.92;84.27;100650.02;1825981;78;25791;-46
2020/12/14 06:49:47;;;;;;;36.20;14.80;;;;;;;0.93;84.25;100655.62;1825914;78;25810;-52
2020/12/14 06:52:17;;;;;;;29.20;12.53;;;;;;;0.93;84.27;100660.95;1826299;78;25606;-54
2020/12/14 06:54:47;;;;;;;27.87;13.22;;;;;;;0.90;84.10;100672.06;1822872;78;25740;-51
2020/12/14 06:57:19;;;;;;;29.57;12.93;;;;;;;0.89;84.05;100666.47;1826178;78;26693;-52
2020/12/14 06:59:53;;;;;;;32.10;13.05;;;;;;;0.89;84.20;100669.94;1825959;78;26359;-58
2020/12/14 07:02:39;;;;;;;24.70;10.60;;;;;;;0.90;84.19;100673.39;1826253;78;25808;-49
2020/12/14 07:05:31;;;;;;;23.77;11.25;;;;;;;0.89;84.14;100663.27;1826201;78;25834;-54
2020/12/14 07:07:58;;;;;;;30.40;13.13;;;;;;;0.90;84.21;100663.58;1826081;78;25869;-53
2020/12/14 07:10:28;;;;;;;27.82;12.82;;;;;;;0.91;84.28;100663.84;1825976;78;27207;-52
2020/12/14 07:12:55;;;;;;;27.80;12.55;;;;;;;0.92;84.34;100654.82;1825832;78;32993;-54
2020/12/14 07:15:33;;;;;;;30.43;14.65;;;;;;;0.96;84.46;100657.02;1825747;78;25809;-49
2020/12/14 07:18:07;;;;;;;29.90;14.50;;;;;;;0.96;84.34;100662.34;1825584;78;26298;-49
2020/12/14 07:20:53;;;;;;;26.65;12.55;;;;;;;0.94;84.16;100661.25;1825984;78;25998;-54
2020/12/14 07:23:20;;;;;;;28.15;12.68;;;;;;;0.93;84.13;100664.94;1825505;78;26077;-52
2020/12/14 07:25:49;;;;;;;29.15;12.20;;;;;;;0.90;84.14;100666.23;1799913;78;26144;-50
2020/12/14 07:28:16;;;;;;;28.87;13.43;;;;;;;0.93;84.43;100664.94;1825310;78;25715;-53
2020/12/14 07:30:43;;;;;;;33.42;13.25;;;;;;;0.95;84.39;100674.03;1821278;78;25648;-53
2020/12/14 07:33:10;;;;;;;29.25;12.98;;;;;;;0.92;84.16;100673.47;1825231;78;26161;-54
2020/12/14 07:35:38;;;;;;;30.80;13.10;;;;;;;0.93;84.29;100672.94;1825288;77;25756;-54
2020/12/14 07:38:11;;;;;;;30.60;12.93;;;;;;;0.95;84.29;100680.69;1825474;78;25811;-46
2020/12/14 07:40:37;;;;;;;29.77;13.70;;;;;;;0.95;84.36;100677.50;1825329;78;25823;-54
2020/12/14 07:43:04;;;;;;;27.93;13.32;;;;;;;0.93;84.10;100676.39;1825439;77;25735;-53
2020/12/14 07:45:31;;;;;;;29.52;12.37;;;;;;;0.93;84.16;100684.92;1825499;78;25987;-52
2020/12/14 07:47:57;;;;;;;26.10;12.33;;;;;;;0.96;84.33;100682.32;1825372;78;26321;-53
2020/12/14 07:50:27;;;;;;;28.47;14.23;;;;;;;0.98;84.31;100691.69;1824132;78;26536;-59
2020/12/14 07:52:55;;;;;;;28.00;13.32;;;;;;;0.92;84.02;100692.64;1825423;78;25808;-56
2020/12/14 07:55:23;;;;;;;28.73;13.93;;;;;;;0.92;84.07;100695.30;1823853;77;25791;-57
2020/12/14 07:57:51;;;;;;;32.85;14.45;;;;;;;0.89;84.06;100690.44;1815892;78;26167;-58
2020/12/14 08:00:24;;;;;;;25.72;12.47;;;;;;;0.91;84.31;100697.67;1809402;79;25837;-58
2020/12/14 08:03:01;;;;;;;29.82;12.78;;;;;;;0.89;84.16;100695.77;1809187;79;25793;-60
2020/12/14 08:05:23;;;;;;;23.73;11.88;;;;;;;0.89;84.36;100692.58;1808531;79;25752;-62
2020/12/14 08:07:55;;;;;;;28.67;12.03;;;;;;;0.91;84.36;100693.14;1809267;79;25859;-57
2020/12/14 08:10:30;;;;;;;31.40;12.23;;;;;;;0.88;84.10;100694.94;1809135;79;25694;-57
2020/12/14 08:12:52;;;;;;;27.62;12.47;;;;;;;0.87;84.34;100690.67;1781630;79;25745;-60
2020/12/14 08:15:22;;;;;;;24.87;11.97;;;;;;;0.88;84.32;100694.13;1809356;78;25807;-58
2020/12/14 08:17:49;;;;;;;26.35;11.20;;;;;;;0.85;84.18;100695.93;1809319;79;25892;-57
2020/12/14 08:20:31;;;;;;;28.17;11.88;;;;;;;0.80;84.09;100693.98;1782261;79;25758;-58
2020/12/14 08:23:00;;;;;;;27.65;12.70;;;;;;;0.81;84.33;100694.26;1809388;79;26492;-56
2020/12/14 08:25:32;;;;;;;29.50;13.38;;;;;;;0.87;84.54;100691.17;1809232;79;26557;-58
2020/12/14 08:28:02;;;;;;;31.40;14.03;;;;;;;0.90;84.72;100684.88;1809177;78;26005;-55
2020/12/14 08:30:31;;;;;;;29.85;13.70;;;;;;;0.95;84.69;100684.69;1806983;79;25868;-56
2020/12/14 08:33:15;;;;;;;25.52;12.80;;;;;;;0.97;84.55;100685.25;1809230;78;25819;-57
2020/12/14 08:35:44;;;;;;;26.42;12.55;;;;;;;0.97;84.43;100690.08;1809418;78;25787;-57
2020/12/14 08:38:16;;;;;;;24.00;12.28;;;;;;;0.98;84.35;100693.55;1809283;79;26726;-59
2020/12/14 08:41:05;;;;;;;23.75;11.70;;;;;;;0.96;84.30;100697.77;1809138;79;25725;-58
2020/12/14 08:43:36;;;;;;;27.93;12.13;;;;;;;0.93;84.24;100698.23;1809469;79;25717;-58
2020/12/14 08:46:14;;;;;;;24.25;12.20;;;;;;;0.93;84.24;100703.56;1809024;79;25654;-56
2020/12/14 08:48:50;;;;;;;23.25;11.88;;;;;;;0.90;84.16;100698.70;1809466;78;26275;-57
2020/12/14 08:51:27;;;;;;;24.40;12.28;;;;;;;0.87;84.12;100696.00;1809165;79;25859;-57
2020/12/14 08:54:18;;;;;;;22.52;11.80;;;;;;;0.87;84.24;100692.50;1822924;78;25791;-51
2020/12/14 08:56:46;;;;;;;21.93;11.25;;;;;;;0.86;84.43;100701.02;1825267;78;26236;-53
2020/12/14 08:59:23;;;;;;;19.65;10.40;;;;;;;0.85;84.33;100700.76;1826318;78;25671;-50
2020/12/14 09:02:08;;;;;;;18.77;9.75;;;;;;;0.82;84.17;100708.37;1826175;78;26244;-54
2020/12/14 09:04:36;;;;;;;18.90;9.73;;;;;;;0.80;84.32;100693.98;1826408;78;25768;-52
2020/12/14 09:07:06;;;;;;;20.25;10.13;;;;;;;0.83;84.56;100692.70;1826341;78;25819;-53
2020/12/14 09:09:41;;;;;;;20.70;10.30;;;;;;;0.91;84.47;100697.67;1847368;76;33385;-57
2020/12/14 09:12:13;;;;;;;20.48;10.08;;;;;;;0.86;84.55;100696.23;1805827;78;25637;-52
2020/12/14 09:14:40;;;;;;;20.88;11.12;;;;;;;0.90;84.69;100695.53;1803368;79;25757;-58
2020/12/14 09:17:17;;;;;;;18.98;9.90;;;;;;;0.97;84.74;100691.91;1804060;79;25706;-59
2020/12/14 09:19:52;;;;;;;22.82;10.68;;;;;;;0.98;84.51;100693.02;1802665;79;25933;-60
2020/12/14 09:22:25;;;;;;;20.12;9.73;;;;;;;0.96;84.30;100697.77;1773733;79;25665;-60
2020/12/14 09:24:52;;;;;;;20.27;9.68;;;;;;;0.98;84.33;100690.87;1804195;79;25574;-59
2020/12/14 09:27:21;;;;;;;30.43;15.20;;;;;;;0.96;84.21;100684.98;1804369;79;26849;-62
2020/12/14 09:29:49;;;;;;;17.52;9.78;;;;;;;0.96;84.31;100680.99;1804068;79;25590;-46
2020/12/14 09:32:17;;;;;;;20.55;10.20;;;;;;;0.98;84.38;100675.70;1804178;79;25732;-59
2020/12/14 09:34:46;;;;;;;19.25;10.58;;;;;;;1.00;84.46;100677.59;1806632;78;25681;-61
2020/12/14 09:37:35;;;;;;;18.80;9.38;;;;;;;1.06;84.67;100683.33;1817785;78;25616;-57
2020/12/14 09:40:22;;;;;;;;;;;;;;;1.14;84.60;100680.00;1729688;81;25990;-61
2020/12/14 09:43:08;;;;;;;18.37;9.23;;;;;;;1.11;84.20;100682.09;1750747;81;25732;-61
2020/12/14 09:45:36;;;;;;;17.55;9.83;;;;;;;1.11;84.23;100675.44;1760574;81;25996;-58
2020/12/14 09:48:07;;;;;;;18.32;9.60;;;;;;;1.11;84.14;100674.11;1733556;81;26266;-55
2020/12/14 09:50:34;;;;;;;19.40;10.50;;;;;;;1.16;84.38;100676.57;1761452;81;25821;-59
2020/12/14 09:53:01;;;;;;;18.80;9.43;;;;;;;1.18;84.30;100673.97;1761535;81;26691;-57
2020/12/14 09:55:28;;;;;;;17.75;9.80;;;;;;;1.21;84.27;100664.17;1758569;81;25663;-58
2020/12/14 09:57:55;;;;;;;17.57;9.35;;;;;;;1.25;84.37;100669.84;1752854;81;26479;-57
2020/12/14 10:00:22;;;;;;;18.05;9.23;;;;;;;1.26;84.17;100666.94;1755095;81;25545;-59
2020/12/14 10:02:49;;;;;;;13.58;7.58;;;;;;;1.27;84.02;100664.54;1758628;81;26324;-59
2020/12/14 10:05:17;;;;;;;15.98;7.55;;;;;;;1.26;83.72;100660.77;1759328;81;26167;-49
2020/12/14 10:07:44;;;;;;;16.80;8.25;;;;;;;1.26;83.57;100662.94;1759261;79;25774;-47
2020/12/14 10:10:11;;;;;;;14.30;7.37;;;;;;;1.25;83.42;100661.84;1759941;81;25797;-59
2020/12/14 10:12:41;;;;;;;13.20;7.85;;;;;;;1.23;83.36;100662.61;1759609;81;25733;-58
2020/12/14 10:15:09;;;;;;;12.43;7.45;;;;;;;1.22;83.32;100656.98;1759860;81;25730;-60
2020/12/14 10:17:37;;;;;;;14.30;7.23;;;;;;;1.22;83.38;100653.78;1760245;81;26685;-59
2020/12/14 10:20:05;;;;;;;16.07;8.05;;;;;;;1.23;83.26;100658.08;1759419;81;25738;-51
2020/12/14 10:22:33;;;;;;;12.63;7.03;;;;;;;1.22;83.57;100652.45;1759459;81;25726;-62
2020/12/14 10:25:01;;;;;;;14.70;7.28;;;;;;;1.28;83.99;100662.17;1758969;81;25738;-54
2020/12/14 10:27:28;;;;;;;14.50;8.28;;;;;;;1.33;83.78;100660.64;1759002;81;26089;-52
2020/12/14 10:29:54;;;;;;;16.40;8.20;;;;;;;1.36;83.89;100668.16;1759081;81;25795;-56
2020/12/14 10:32:21;;;;;;;13.50;7.83;;;;;;;1.38;83.62;100664.73;1758864;81;25676;-52
2020/12/14 10:34:48;;;;;;;16.07;8.35;;;;;;;1.41;83.65;100662.92;1748092;80;25719;-56
2020/12/14 10:37:15;;;;;;;13.85;8.18;;;;;;;1.43;83.59;100668.31;1763277;79;25744;-54
2020/12/14 10:39:43;;;;;;;20.45;9.40;;;;;;;1.46;83.46;100669.69;1784195;80;25673;-54
2020/12/14 10:42:12;;;;;;;17.05;9.55;;;;;;;1.45;83.30;100672.08;1803003;79;26225;-51
2020/12/14 10:44:39;;;;;;;17.40;10.10;;;;;;;1.45;83.23;100674.75;1784055;80;25716;-58
2020/12/14 10:47:08;;;;;;;18.95;11.05;;;;;;;1.48;83.72;100665.74;1802913;79;26314;-60
2020/12/14 10:49:36;;;;;;;20.80;10.82;;;;;;;1.54;83.70;100675.97;1784019;80;25738;-56
2020/12/14 10:52:04;;;;;;;20.27;10.53;;;;;;;1.54;83.29;100677.84;1802986;79;25641;-60
2020/12/14 10:54:31;;;;;;;23.42;12.60;;;;;;;1.49;82.86;100677.20;1784177;80;25700;-64
2020/12/14 10:56:58;;;;;;;23.12;11.53;;;;;;;1.49;83.10;100674.01;1802848;79;25645;-55
2020/12/14 10:59:25;;;;;;;23.30;11.20;;;;;;;1.51;82.95;100675.11;1784207;80;25709;-63
2020/12/14 11:01:52;;;;;;;18.57;11.12;;;;;;;1.51;82.84;100670.31;1794867;79;25775;-66
2020/12/14 11:04:19;;;;;;;21.93;11.73;;;;;;;1.53;83.19;100676.20;1765368;81;25692;-57
2020/12/14 11:06:46;;;;;;;21.45;11.35;;;;;;;1.56;83.03;100678.39;1767150;81;26258;-58
2020/12/14 11:09:13;;;;;;;23.38;12.98;;;;;;;1.56;82.98;100678.39;1766913;81;25761;-56
2020/12/14 11:11:42;;;;;;;23.85;11.88;;;;;;;1.59;82.93;100680.05;1767357;81;26155;-57
2020/12/14 11:14:09;;;;;;;26.23;12.47;;;;;;;1.59;82.95;100678.73;1767100;81;25749;-58
2020/12/14 11:16:42;;;;;;;22.87;11.73;;;;;;;1.58;82.81;100673.09;1767170;81;25678;-55
2020/12/14 11:19:08;;;;;;;20.40;12.47;;;;;;;1.58;82.69;100665.62;1766758;81;26166;-59
2020/12/14 11:21:35;;;;;;;24.87;13.43;;;;;;;1.58;82.78;100663.77;1767241;81;25938;-56
2020/12/14 11:24:04;;;;;;;24.75;13.18;;;;;;;1.59;82.94;100664.06;1767302;81;25492;-59
2020/12/14 11:26:31;;;;;;;26.82;13.28;;;;;;;1.63;82.89;100665.19;1767302;81;25455;-53
2020/12/14 11:28:58;;;;;;;23.92;11.90;;;;;;;1.63;82.70;100668.38;1750006;79;26036;-56